sensor_id;sensor_type;location;lat;lon;timestamp;temperature;humidity
75838;SHT30;64480;52.040;113.502;2023-04-03T00:00:32;-5.94;46.95
75838;SHT30;64480;52.040;113.502;2023-04-03T00:03:37;-5.35;48.34
75838;SHT30;64480;52.040;113.502;2023-04-03T00:06:40;-4.60;45.51
75838;SHT30;64480;52.040;113.502;2023-04-03T00:09:43;-3.67;43.37
75838;SHT30;64480;52.040;113.502;2023-04-03T00:12:47;-3.69;41.15
75838;SHT30;64480;52.040;113.502;2023-04-03T00:15:51;-3.70;42.06
75838;SHT30;64480;52.040;113.502;2023-04-03T00:18:54;-2.84;41.88
75838;SHT30;64480;52.040;113.502;2023-04-03T00:21:58;-2.72;40.27
75838;SHT30;64480;52.040;113.502;2023-04-03T00:25:01;-3.15;40.69
75838;SHT30;64480;52.040;113.502;2023-04-03T00:28:04;-3.62;41.58
75838;SHT30;64480;52.040;113.502;2023-04-03T00:31:08;-3.31;41.01
75838;SHT30;64480;52.040;113.502;2023-04-03T00:34:11;-2.30;41.21
75838;SHT30;64480;52.040;113.502;2023-04-03T00:37:15;-2.01;39.48
75838;SHT30;64480;52.040;113.502;2023-04-03T00:40:18;-1.30;38.52
75838;SHT30;64480;52.040;113.502;2023-04-03T00:43:24;-1.17;36.35
75838;SHT30;64480;52.040;113.502;2023-04-03T00:46:29;-0.89;35.87
75838;SHT30;64480;52.040;113.502;2023-04-03T00:49:32;-1.63;36.76
75838;SHT30;64480;52.040;113.502;2023-04-03T00:52:37;-1.35;36.51
75838;SHT30;64480;52.040;113.502;2023-04-03T00:55:41;-1.47;37.06
75838;SHT30;64480;52.040;113.502;2023-04-03T00:58:54;-1.37;38.45
75838;SHT30;64480;52.040;113.502;2023-04-03T01:02:00;-1.96;41.45
75838;SHT30;64480;52.040;113.502;2023-04-03T01:05:04;-2.14;39.39
75838;SHT30;64480;52.040;113.502;2023-04-03T01:08:09;-2.70;39.57
75838;SHT30;64480;52.040;113.502;2023-04-03T01:11:13;-3.01;40.17
75838;SHT30;64480;52.040;113.502;2023-04-03T01:14:17;-2.88;41.54
75838;SHT30;64480;52.040;113.502;2023-04-03T01:20:36;-3.12;40.88
75838;SHT30;64480;52.040;113.502;2023-04-03T01:23:54;-3.35;39.40
75838;SHT30;64480;52.040;113.502;2023-04-03T01:27:01;-3.84;41.04
75838;SHT30;64480;52.040;113.502;2023-04-03T01:30:06;-3.67;42.39
75838;SHT30;64480;52.040;113.502;2023-04-03T01:33:10;-3.81;40.58
75838;SHT30;64480;52.040;113.502;2023-04-03T01:36:18;-3.84;41.68
75838;SHT30;64480;52.040;113.502;2023-04-03T01:39:23;-3.64;40.43
75838;SHT30;64480;52.040;113.502;2023-04-03T01:42:27;-3.53;41.46
75838;SHT30;64480;52.040;113.502;2023-04-03T01:45:30;-3.34;41.20
75838;SHT30;64480;52.040;113.502;2023-04-03T01:48:34;-3.41;40.52
75838;SHT30;64480;52.040;113.502;2023-04-03T01:51:37;-3.24;39.14
75838;SHT30;64480;52.040;113.502;2023-04-03T01:54:41;-3.04;40.13
75838;SHT30;64480;52.040;113.502;2023-04-03T01:57:44;-3.03;38.74
75838;SHT30;64480;52.040;113.502;2023-04-03T02:00:48;-3.24;40.53
75838;SHT30;64480;52.040;113.502;2023-04-03T02:03:52;-3.01;40.03
75838;SHT30;64480;52.040;113.502;2023-04-03T02:06:55;-3.08;41.02
75838;SHT30;64480;52.040;113.502;2023-04-03T02:09:59;-3.05;40.14
75838;SHT30;64480;52.040;113.502;2023-04-03T02:13:03;-2.62;41.29
75838;SHT30;64480;52.040;113.502;2023-04-03T02:16:09;-2.68;40.76
75838;SHT30;64480;52.040;113.502;2023-04-03T02:19:13;-2.52;40.89
75838;SHT30;64480;52.040;113.502;2023-04-03T02:22:16;-2.65;40.53
75838;SHT30;64480;52.040;113.502;2023-04-03T02:25:20;-2.24;41.23
75838;SHT30;64480;52.040;113.502;2023-04-03T02:28:25;-2.28;38.30
75838;SHT30;64480;52.040;113.502;2023-04-03T02:31:28;-2.56;39.47
75838;SHT30;64480;52.040;113.502;2023-04-03T02:34:34;-2.30;37.25
75838;SHT30;64480;52.040;113.502;2023-04-03T02:37:39;-2.42;37.39
75838;SHT30;64480;52.040;113.502;2023-04-03T02:40:42;-2.22;40.70
75838;SHT30;64480;52.040;113.502;2023-04-03T02:43:46;-1.86;37.35
75838;SHT30;64480;52.040;113.502;2023-04-03T02:46:50;-1.79;38.12
75838;SHT30;64480;52.040;113.502;2023-04-03T02:49:54;-1.94;40.06
75838;SHT30;64480;52.040;113.502;2023-04-03T02:52:57;-2.20;37.67
75838;SHT30;64480;52.040;113.502;2023-04-03T02:56:01;-2.66;36.90
75838;SHT30;64480;52.040;113.502;2023-04-03T02:59:04;-2.48;38.07
75838;SHT30;64480;52.040;113.502;2023-04-03T03:02:10;-2.48;37.65
75838;SHT30;64480;52.040;113.502;2023-04-03T03:05:14;-2.55;37.56
75838;SHT30;64480;52.040;113.502;2023-04-03T03:08:17;-2.38;38.22
75838;SHT30;64480;52.040;113.502;2023-04-03T03:11:22;-2.56;38.61
75838;SHT30;64480;52.040;113.502;2023-04-03T03:14:27;-2.28;38.82
75838;SHT30;64480;52.040;113.502;2023-04-03T03:17:30;-2.15;38.08
75838;SHT30;64480;52.040;113.502;2023-04-03T03:20:34;-2.30;38.12
75838;SHT30;64480;52.040;113.502;2023-04-03T03:23:38;-2.11;39.47
75838;SHT30;64480;52.040;113.502;2023-04-03T03:26:42;-1.87;37.60
75838;SHT30;64480;52.040;113.502;2023-04-03T03:29:46;-1.85;38.85
75838;SHT30;64480;52.040;113.502;2023-04-03T03:32:50;-1.73;40.75
75838;SHT30;64480;52.040;113.502;2023-04-03T03:35:55;-1.62;38.27
75838;SHT30;64480;52.040;113.502;2023-04-03T03:38:58;-1.44;38.74
75838;SHT30;64480;52.040;113.502;2023-04-03T03:42:02;-1.35;36.55
75838;SHT30;64480;52.040;113.502;2023-04-03T03:45:07;-1.28;36.18
75838;SHT30;64480;52.040;113.502;2023-04-03T03:48:10;-1.13;35.41
75838;SHT30;64480;52.040;113.502;2023-04-03T03:51:14;-1.11;37.25
75838;SHT30;64480;52.040;113.502;2023-04-03T03:54:18;-0.93;38.15
75838;SHT30;64480;52.040;113.502;2023-04-03T03:57:22;-0.62;36.86
75838;SHT30;64480;52.040;113.502;2023-04-03T04:00:25;-1.04;35.10
75838;SHT30;64480;52.040;113.502;2023-04-03T04:03:30;-1.10;35.22
75838;SHT30;64480;52.040;113.502;2023-04-03T04:06:34;-0.62;36.68
75838;SHT30;64480;52.040;113.502;2023-04-03T04:09:40;-0.58;35.10
75838;SHT30;64480;52.040;113.502;2023-04-03T04:12:44;-0.72;35.42
75838;SHT30;64480;52.040;113.502;2023-04-03T04:15:56;-0.97;33.73
75838;SHT30;64480;52.040;113.502;2023-04-03T04:22:00;-0.37;35.22
75838;SHT30;64480;52.040;113.502;2023-04-03T04:25:05;-0.37;34.51
75838;SHT30;64480;52.040;113.502;2023-04-03T04:28:10;-0.25;33.59
75838;SHT30;64480;52.040;113.502;2023-04-03T04:31:14;-0.38;35.50
75838;SHT30;64480;52.040;113.502;2023-04-03T04:34:17;-0.42;35.61
75838;SHT30;64480;52.040;113.502;2023-04-03T04:37:21;-0.55;33.98
75838;SHT30;64480;52.040;113.502;2023-04-03T04:40:25;-0.69;33.00
75838;SHT30;64480;52.040;113.502;2023-04-03T04:43:30;-0.79;36.04
75838;SHT30;64480;52.040;113.502;2023-04-03T04:46:33;-0.97;36.19
75838;SHT30;64480;52.040;113.502;2023-04-03T04:49:37;-0.76;36.10
75838;SHT30;64480;52.040;113.502;2023-04-03T04:52:41;-0.64;35.37
75838;SHT30;64480;52.040;113.502;2023-04-03T04:55:44;-0.80;35.20
75838;SHT30;64480;52.040;113.502;2023-04-03T04:58:48;-0.75;35.43
75838;SHT30;64480;52.040;113.502;2023-04-03T05:01:54;-0.86;36.20
75838;SHT30;64480;52.040;113.502;2023-04-03T05:04:57;-1.04;32.97
75838;SHT30;64480;52.040;113.502;2023-04-03T05:08:04;-1.20;34.98
75838;SHT30;64480;52.040;113.502;2023-04-03T05:11:08;-1.25;33.14
75838;SHT30;64480;52.040;113.502;2023-04-03T05:14:12;-1.17;34.55
75838;SHT30;64480;52.040;113.502;2023-04-03T05:17:16;-1.24;32.81
75838;SHT30;64480;52.040;113.502;2023-04-03T05:20:25;-0.94;36.92
75838;SHT30;64480;52.040;113.502;2023-04-03T05:23:29;-0.52;34.62
75838;SHT30;64480;52.040;113.502;2023-04-03T05:26:35;-0.65;32.91
75838;SHT30;64480;52.040;113.502;2023-04-03T05:29:38;-0.58;34.58
75838;SHT30;64480;52.040;113.502;2023-04-03T05:32:48;-0.52;34.56
75838;SHT30;64480;52.040;113.502;2023-04-03T05:36:02;-0.89;31.82
75838;SHT30;64480;52.040;113.502;2023-04-03T05:39:10;-1.00;34.56
75838;SHT30;64480;52.040;113.502;2023-04-03T05:42:17;-0.86;36.14
75838;SHT30;64480;52.040;113.502;2023-04-03T05:45:20;-1.13;32.68
75838;SHT30;64480;52.040;113.502;2023-04-03T05:48:23;-1.22;33.28
75838;SHT30;64480;52.040;113.502;2023-04-03T05:51:45;-1.18;34.77
75838;SHT30;64480;52.040;113.502;2023-04-03T05:54:57;-1.01;33.36
75838;SHT30;64480;52.040;113.502;2023-04-03T05:58:03;-0.97;33.67
75838;SHT30;64480;52.040;113.502;2023-04-03T06:01:07;-0.73;33.54
75838;SHT30;64480;52.040;113.502;2023-04-03T06:04:11;-0.47;32.84
75838;SHT30;64480;52.040;113.502;2023-04-03T06:07:20;-0.17;32.73
75838;SHT30;64480;52.040;113.502;2023-04-03T06:10:26;-0.80;32.43
75838;SHT30;64480;52.040;113.502;2023-04-03T06:13:32;-1.03;32.93
75838;SHT30;64480;52.040;113.502;2023-04-03T06:16:36;-0.93;33.07
75838;SHT30;64480;52.040;113.502;2023-04-03T06:19:44;-1.13;33.11
75838;SHT30;64480;52.040;113.502;2023-04-03T06:22:47;-1.27;33.66
75838;SHT30;64480;52.040;113.502;2023-04-03T06:25:52;-1.27;35.60
75838;SHT30;64480;52.040;113.502;2023-04-03T06:28:58;-1.08;35.84
75838;SHT30;64480;52.040;113.502;2023-04-03T06:32:01;-1.03;33.95
75838;SHT30;64480;52.040;113.502;2023-04-03T06:35:05;-0.94;33.90
75838;SHT30;64480;52.040;113.502;2023-04-03T06:38:09;-0.77;35.44
75838;SHT30;64480;52.040;113.502;2023-04-03T06:41:12;-0.76;34.14
75838;SHT30;64480;52.040;113.502;2023-04-03T06:44:16;-0.58;31.61
75838;SHT30;64480;52.040;113.502;2023-04-03T06:47:19;-0.66;31.82
75838;SHT30;64480;52.040;113.502;2023-04-03T06:50:23;-1.03;32.62
75838;SHT30;64480;52.040;113.502;2023-04-03T06:53:26;-1.24;32.03
75838;SHT30;64480;52.040;113.502;2023-04-03T06:56:30;-1.30;33.55
75838;SHT30;64480;52.040;113.502;2023-04-03T06:59:35;-1.00;33.11
75838;SHT30;64480;52.040;113.502;2023-04-03T07:02:39;-0.65;33.79
75838;SHT30;64480;52.040;113.502;2023-04-03T07:05:48;-0.76;31.39
75838;SHT30;64480;52.040;113.502;2023-04-03T07:08:54;-0.86;33.72
75838;SHT30;64480;52.040;113.502;2023-04-03T07:11:58;-0.96;32.55
75838;SHT30;64480;52.040;113.502;2023-04-03T07:15:01;-1.03;31.31
75838;SHT30;64480;52.040;113.502;2023-04-03T07:18:06;-0.93;33.58
75838;SHT30;64480;52.040;113.502;2023-04-03T07:21:10;-0.92;31.43
75838;SHT30;64480;52.040;113.502;2023-04-03T07:24:14;-0.83;31.96
75838;SHT30;64480;52.040;113.502;2023-04-03T07:27:18;-0.68;33.13
75838;SHT30;64480;52.040;113.502;2023-04-03T07:30:21;-0.58;32.70
75838;SHT30;64480;52.040;113.502;2023-04-03T07:33:28;-0.93;31.05
75838;SHT30;64480;52.040;113.502;2023-04-03T07:36:34;-1.20;31.99
75838;SHT30;64480;52.040;113.502;2023-04-03T07:39:44;-1.15;31.10
75838;SHT30;64480;52.040;113.502;2023-04-03T07:42:47;-1.21;31.73
75838;SHT30;64480;52.040;113.502;2023-04-03T07:45:51;-1.20;32.36
75838;SHT30;64480;52.040;113.502;2023-04-03T07:48:55;-1.04;31.52
75838;SHT30;64480;52.040;113.502;2023-04-03T07:51:59;-1.08;31.59
75838;SHT30;64480;52.040;113.502;2023-04-03T07:55:03;-0.90;30.35
75838;SHT30;64480;52.040;113.502;2023-04-03T07:58:10;-0.94;32.72
75838;SHT30;64480;52.040;113.502;2023-04-03T08:01:17;-0.89;30.94
75838;SHT30;64480;52.040;113.502;2023-04-03T08:04:20;-0.69;31.57
75838;SHT30;64480;52.040;113.502;2023-04-03T08:07:24;-0.77;31.70
75838;SHT30;64480;52.040;113.502;2023-04-03T08:10:30;-0.65;29.22
75838;SHT30;64480;52.040;113.502;2023-04-03T08:13:34;-0.73;31.49
75838;SHT30;64480;52.040;113.502;2023-04-03T08:16:41;-0.58;30.56
75838;SHT30;64480;52.040;113.502;2023-04-03T08:19:44;-0.42;30.13
75838;SHT30;64480;52.040;113.502;2023-04-03T08:22:48;-0.55;29.03
75838;SHT30;64480;52.040;113.502;2023-04-03T08:25:51;-0.73;29.45
75838;SHT30;64480;52.040;113.502;2023-04-03T08:28:55;-0.52;29.46
75838;SHT30;64480;52.040;113.502;2023-04-03T08:31:58;-0.54;28.53
75838;SHT30;64480;52.040;113.502;2023-04-03T08:35:03;-0.75;28.51
75838;SHT30;64480;52.040;113.502;2023-04-03T08:38:07;-0.77;28.33
75838;SHT30;64480;52.040;113.502;2023-04-03T08:44:25;-0.92;29.01
75838;SHT30;64480;52.040;113.502;2023-04-03T08:47:46;-0.77;29.06
75838;SHT30;64480;52.040;113.502;2023-04-03T08:51:02;-0.69;28.44
75838;SHT30;64480;52.040;113.502;2023-04-03T08:54:43;-0.80;28.06
75838;SHT30;64480;52.040;113.502;2023-04-03T08:58:02;-0.97;27.52
75838;SHT30;64480;52.040;113.502;2023-04-03T09:01:21;-0.97;28.19
75838;SHT30;64480;52.040;113.502;2023-04-03T09:04:28;-1.10;28.19
75838;SHT30;64480;52.040;113.502;2023-04-03T09:07:47;-1.08;28.95
75838;SHT30;64480;52.040;113.502;2023-04-03T09:11:13;-1.01;28.87
75838;SHT30;64480;52.040;113.502;2023-04-03T09:24:13;-1.21;28.29
75838;SHT30;64480;52.040;113.502;2023-04-03T09:27:43;-1.31;27.46
75838;SHT30;64480;52.040;113.502;2023-04-03T09:30:49;-1.38;27.47
75838;SHT30;64480;52.040;113.502;2023-04-03T09:34:01;-1.66;26.93
75838;SHT30;64480;52.040;113.502;2023-04-03T09:37:10;-1.60;27.67
75838;SHT30;64480;52.040;113.502;2023-04-03T09:40:32;-1.63;27.22
75838;SHT30;64480;52.040;113.502;2023-04-03T09:43:38;-1.63;28.05
75838;SHT30;64480;52.040;113.502;2023-04-03T09:46:41;-1.79;27.01
75838;SHT30;64480;52.040;113.502;2023-04-03T09:49:45;-1.83;26.54
75838;SHT30;64480;52.040;113.502;2023-04-03T09:52:50;-1.91;27.11
75838;SHT30;64480;52.040;113.502;2023-04-03T09:55:57;-1.87;28.22
75838;SHT30;64480;52.040;113.502;2023-04-03T10:05:37;-2.30;26.94
75838;SHT30;64480;52.040;113.502;2023-04-03T10:08:40;-2.32;26.77
75838;SHT30;64480;52.040;113.502;2023-04-03T10:12:06;-2.38;26.71
75838;SHT30;64480;52.040;113.502;2023-04-03T10:15:15;-2.40;27.35
75838;SHT30;64480;52.040;113.502;2023-04-03T10:18:45;-2.51;25.40
75838;SHT30;64480;52.040;113.502;2023-04-03T10:21:57;-2.63;26.57
75838;SHT30;64480;52.040;113.502;2023-04-03T10:31:46;-2.65;27.35
75838;SHT30;64480;52.040;113.502;2023-04-03T10:35:16;-2.70;27.32
75838;SHT30;64480;52.040;113.502;2023-04-03T10:51:44;-2.98;27.17
75838;SHT30;64480;52.040;113.502;2023-04-03T10:54:56;-3.07;26.97
75838;SHT30;64480;52.040;113.502;2023-04-03T10:58:06;-3.12;27.07
75838;SHT30;64480;52.040;113.502;2023-04-03T11:01:19;-3.16;28.03
75838;SHT30;64480;52.040;113.502;2023-04-03T11:04:27;-3.19;27.37
75838;SHT30;64480;52.040;113.502;2023-04-03T11:07:46;-3.19;28.14
75838;SHT30;64480;52.040;113.502;2023-04-03T11:10:51;-3.18;28.20
75838;SHT30;64480;52.040;113.502;2023-04-03T11:14:04;-3.18;28.50
75838;SHT30;64480;52.040;113.502;2023-04-03T11:17:39;-3.21;27.45
75838;SHT30;64480;52.040;113.502;2023-04-03T11:24:59;-3.27;27.25
75838;SHT30;64480;52.040;113.502;2023-04-03T11:28:12;-3.32;26.89
75838;SHT30;64480;52.040;113.502;2023-04-03T11:34:41;-3.35;26.31
75838;SHT30;64480;52.040;113.502;2023-04-03T11:37:49;-3.36;27.79
75838;SHT30;64480;52.040;113.502;2023-04-03T11:40:55;-3.38;25.92
75838;SHT30;64480;52.040;113.502;2023-04-03T11:44:05;-3.38;25.57
75838;SHT30;64480;52.040;113.502;2023-04-03T11:47:12;-3.42;27.19
75838;SHT30;64480;52.040;113.502;2023-04-03T11:50:39;-3.42;26.30
75838;SHT30;64480;52.040;113.502;2023-04-03T11:53:45;-3.46;26.77
75838;SHT30;64480;52.040;113.502;2023-04-03T11:56:48;-3.48;26.32
75838;SHT30;64480;52.040;113.502;2023-04-03T11:59:51;-3.53;26.66
75838;SHT30;64480;52.040;113.502;2023-04-03T12:02:55;-3.55;27.50
75838;SHT30;64480;52.040;113.502;2023-04-03T12:09:54;-3.63;26.76
75838;SHT30;64480;52.040;113.502;2023-04-03T12:12:59;-3.67;28.79
75838;SHT30;64480;52.040;113.502;2023-04-03T12:16:27;-3.76;27.16
75838;SHT30;64480;52.040;113.502;2023-04-03T12:19:38;-3.88;27.41
75838;SHT30;64480;52.040;113.502;2023-04-03T12:23:21;-3.90;27.28
75838;SHT30;64480;52.040;113.502;2023-04-03T12:26:28;-3.97;26.83
75838;SHT30;64480;52.040;113.502;2023-04-03T12:30:22;-3.99;28.59
75838;SHT30;64480;52.040;113.502;2023-04-03T12:33:56;-4.05;28.25
75838;SHT30;64480;52.040;113.502;2023-04-03T12:37:07;-4.12;28.46
75838;SHT30;64480;52.040;113.502;2023-04-03T12:40:39;-4.15;28.98
75838;SHT30;64480;52.040;113.502;2023-04-03T12:44:08;-4.15;29.95
75838;SHT30;64480;52.040;113.502;2023-04-03T12:47:28;-4.16;31.00
75838;SHT30;64480;52.040;113.502;2023-04-03T12:50:32;-4.22;30.35
75838;SHT30;64480;52.040;113.502;2023-04-03T12:53:37;-4.19;30.01
75838;SHT30;64480;52.040;113.502;2023-04-03T12:56:46;-4.25;29.72
75838;SHT30;64480;52.040;113.502;2023-04-03T12:59:49;-4.32;30.20
75838;SHT30;64480;52.040;113.502;2023-04-03T13:02:53;-4.30;29.48
75838;SHT30;64480;52.040;113.502;2023-04-03T13:06:00;-4.39;29.52
75838;SHT30;64480;52.040;113.502;2023-04-03T13:12:27;-4.41;30.17
75838;SHT30;64480;52.040;113.502;2023-04-03T13:15:46;-4.45;29.19
75838;SHT30;64480;52.040;113.502;2023-04-03T13:18:53;-4.48;29.02
75838;SHT30;64480;52.040;113.502;2023-04-03T13:22:01;-4.50;29.10
75838;SHT30;64480;52.040;113.502;2023-04-03T13:25:09;-4.53;30.21
75838;SHT30;64480;52.040;113.502;2023-04-03T13:28:19;-4.52;30.31
75838;SHT30;64480;52.040;113.502;2023-04-03T13:31:26;-4.57;30.24
75838;SHT30;64480;52.040;113.502;2023-04-03T13:34:43;-4.62;30.57
75838;SHT30;64480;52.040;113.502;2023-04-03T13:37:57;-4.60;30.82
75838;SHT30;64480;52.040;113.502;2023-04-03T13:41:21;-4.63;29.98
75838;SHT30;64480;52.040;113.502;2023-04-03T13:44:32;-4.70;30.94
75838;SHT30;64480;52.040;113.502;2023-04-03T13:47:41;-4.71;30.70
75838;SHT30;64480;52.040;113.502;2023-04-03T13:57:27;-4.83;32.34
75838;SHT30;64480;52.040;113.502;2023-04-03T14:04:09;-4.92;32.30
75838;SHT30;64480;52.040;113.502;2023-04-03T14:07:19;-4.99;31.96
75838;SHT30;64480;52.040;113.502;2023-04-03T14:10:26;-5.08;32.50
75838;SHT30;64480;52.040;113.502;2023-04-03T14:13:33;-5.15;33.29
75838;SHT30;64480;52.040;113.502;2023-04-03T14:16:39;-5.15;33.63
75838;SHT30;64480;52.040;113.502;2023-04-03T14:19:44;-5.22;32.59
75838;SHT30;64480;52.040;113.502;2023-04-03T14:22:57;-5.25;32.94
75838;SHT30;64480;52.040;113.502;2023-04-03T14:26:27;-5.28;34.60
75838;SHT30;64480;52.040;113.502;2023-04-03T14:29:33;-5.29;33.33
75838;SHT30;64480;52.040;113.502;2023-04-03T14:32:40;-5.30;34.31
75838;SHT30;64480;52.040;113.502;2023-04-03T14:35:46;-5.33;34.09
75838;SHT30;64480;52.040;113.502;2023-04-03T14:38:54;-5.39;34.77
75838;SHT30;64480;52.040;113.502;2023-04-03T14:42:24;-5.39;34.99
75838;SHT30;64480;52.040;113.502;2023-04-03T14:45:31;-5.42;35.17
75838;SHT30;64480;52.040;113.502;2023-04-03T14:48:38;-5.44;34.82
75838;SHT30;64480;52.040;113.502;2023-04-03T14:51:47;-5.47;35.17
75838;SHT30;64480;52.040;113.502;2023-04-03T14:54:53;-5.54;35.29
75838;SHT30;64480;52.040;113.502;2023-04-03T14:57:58;-5.57;35.14
75838;SHT30;64480;52.040;113.502;2023-04-03T15:01:27;-5.63;34.61
75838;SHT30;64480;52.040;113.502;2023-04-03T15:04:31;-5.66;33.98
75838;SHT30;64480;52.040;113.502;2023-04-03T15:08:03;-5.67;33.99
75838;SHT30;64480;52.040;113.502;2023-04-03T15:11:14;-5.67;34.04
75838;SHT30;64480;52.040;113.502;2023-04-03T15:14:18;-5.71;33.94
75838;SHT30;64480;52.040;113.502;2023-04-03T15:17:41;-5.74;34.37
75838;SHT30;64480;52.040;113.502;2023-04-03T15:20:49;-5.77;34.80
75838;SHT30;64480;52.040;113.502;2023-04-03T15:24:02;-5.75;34.95
75838;SHT30;64480;52.040;113.502;2023-04-03T15:27:10;-5.81;35.13
75838;SHT30;64480;52.040;113.502;2023-04-03T15:30:19;-5.87;34.52
75838;SHT30;64480;52.040;113.502;2023-04-03T15:33:27;-5.88;34.95
75838;SHT30;64480;52.040;113.502;2023-04-03T15:36:34;-5.88;35.11
75838;SHT30;64480;52.040;113.502;2023-04-03T15:39:39;-5.91;35.27
75838;SHT30;64480;52.040;113.502;2023-04-03T15:42:42;-5.94;34.69
75838;SHT30;64480;52.040;113.502;2023-04-03T15:46:11;-5.94;34.55
75838;SHT30;64480;52.040;113.502;2023-04-03T15:49:16;-5.94;34.83
75838;SHT30;64480;52.040;113.502;2023-04-03T15:52:24;-5.97;34.26
75838;SHT30;64480;52.040;113.502;2023-04-03T15:55:31;-6.02;34.13
75838;SHT30;64480;52.040;113.502;2023-04-03T15:58:40;-6.05;35.30
75838;SHT30;64480;52.040;113.502;2023-04-03T16:01:45;-6.08;35.23
75838;SHT30;64480;52.040;113.502;2023-04-03T16:04:56;-6.12;35.41
75838;SHT30;64480;52.040;113.502;2023-04-03T16:08:15;-6.13;34.88
75838;SHT30;64480;52.040;113.502;2023-04-03T16:11:25;-6.19;35.67
75838;SHT30;64480;52.040;113.502;2023-04-03T16:14:41;-6.29;35.36
75838;SHT30;64480;52.040;113.502;2023-04-03T16:17:48;-6.33;36.16
75838;SHT30;64480;52.040;113.502;2023-04-03T16:20:54;-6.37;36.27
75838;SHT30;64480;52.040;113.502;2023-04-03T16:23:58;-6.41;36.22
75838;SHT30;64480;52.040;113.502;2023-04-03T16:27:04;-6.40;35.85
75838;SHT30;64480;52.040;113.502;2023-04-03T16:30:11;-6.40;36.12
75838;SHT30;64480;52.040;113.502;2023-04-03T16:33:18;-6.46;36.01
75838;SHT30;64480;52.040;113.502;2023-04-03T16:36:29;-6.48;36.19
75838;SHT30;64480;52.040;113.502;2023-04-03T16:39:54;-6.51;37.02
75838;SHT30;64480;52.040;113.502;2023-04-03T16:43:02;-6.51;36.35
75838;SHT30;64480;52.040;113.502;2023-04-03T16:46:08;-6.51;36.38
75838;SHT30;64480;52.040;113.502;2023-04-03T16:49:15;-6.53;36.51
75838;SHT30;64480;52.040;113.502;2023-04-03T16:52:26;-6.54;36.44
75838;SHT30;64480;52.040;113.502;2023-04-03T16:55:32;-6.56;36.50
75838;SHT30;64480;52.040;113.502;2023-04-03T16:58:37;-6.57;36.33
75838;SHT30;64480;52.040;113.502;2023-04-03T17:01:40;-6.57;36.40
75838;SHT30;64480;52.040;113.502;2023-04-03T17:04:55;-6.58;36.30
75838;SHT30;64480;52.040;113.502;2023-04-03T17:08:04;-6.63;36.66
75838;SHT30;64480;52.040;113.502;2023-04-03T17:11:10;-6.63;36.83
75838;SHT30;64480;52.040;113.502;2023-04-03T17:14:17;-6.64;36.85
75838;SHT30;64480;52.040;113.502;2023-04-03T17:17:26;-6.64;36.70
75838;SHT30;64480;52.040;113.502;2023-04-03T17:20:55;-6.67;36.74
75838;SHT30;64480;52.040;113.502;2023-04-03T17:24:05;-6.68;37.41
75838;SHT30;64480;52.040;113.502;2023-04-03T17:27:20;-6.73;37.19
75838;SHT30;64480;52.040;113.502;2023-04-03T17:30:26;-6.73;37.35
75838;SHT30;64480;52.040;113.502;2023-04-03T17:33:33;-6.75;37.55
75838;SHT30;64480;52.040;113.502;2023-04-03T17:37:02;-6.78;37.53
75838;SHT30;64480;52.040;113.502;2023-04-03T17:40:12;-6.80;37.73
75838;SHT30;64480;52.040;113.502;2023-04-03T17:43:20;-6.78;37.95
75838;SHT30;64480;52.040;113.502;2023-04-03T17:46:28;-6.81;37.66
75838;SHT30;64480;52.040;113.502;2023-04-03T17:49:38;-6.85;38.38
75838;SHT30;64480;52.040;113.502;2023-04-03T17:52:41;-6.85;38.52
75838;SHT30;64480;52.040;113.502;2023-04-03T17:55:47;-6.89;38.34
75838;SHT30;64480;52.040;113.502;2023-04-03T17:59:09;-6.88;38.92
75838;SHT30;64480;52.040;113.502;2023-04-03T18:02:19;-6.91;38.54
75838;SHT30;64480;52.040;113.502;2023-04-03T18:05:26;-6.94;38.51
75838;SHT30;64480;52.040;113.502;2023-04-03T18:08:36;-6.94;38.84
75838;SHT30;64480;52.040;113.502;2023-04-03T18:11:53;-6.94;39.27
75838;SHT30;64480;52.040;113.502;2023-04-03T18:15:02;-6.98;39.01
75838;SHT30;64480;52.040;113.502;2023-04-03T18:18:05;-6.99;38.99
75838;SHT30;64480;52.040;113.502;2023-04-03T18:21:13;-6.99;39.45
75838;SHT30;64480;52.040;113.502;2023-04-03T18:24:33;-7.02;39.12
75838;SHT30;64480;52.040;113.502;2023-04-03T18:27:37;-7.03;39.54
75838;SHT30;64480;52.040;113.502;2023-04-03T18:30:41;-7.05;39.33
75838;SHT30;64480;52.040;113.502;2023-04-03T18:33:49;-7.08;39.64
75838;SHT30;64480;52.040;113.502;2023-04-03T18:37:21;-7.06;39.54
75838;SHT30;64480;52.040;113.502;2023-04-03T18:40:50;-7.09;39.65
75838;SHT30;64480;52.040;113.502;2023-04-03T18:44:03;-7.08;40.28
75838;SHT30;64480;52.040;113.502;2023-04-03T18:47:11;-7.13;39.86
75838;SHT30;64480;52.040;113.502;2023-04-03T18:50:20;-7.09;39.82
75838;SHT30;64480;52.040;113.502;2023-04-03T18:53:24;-7.06;40.04
75838;SHT30;64480;52.040;113.502;2023-04-03T18:56:34;-7.08;39.10
75838;SHT30;64480;52.040;113.502;2023-04-03T18:59:46;-7.12;39.83
75838;SHT30;64480;52.040;113.502;2023-04-03T19:03:05;-7.13;39.82
75838;SHT30;64480;52.040;113.502;2023-04-03T19:06:11;-7.15;40.46
75838;SHT30;64480;52.040;113.502;2023-04-03T19:09:15;-7.16;40.01
75838;SHT30;64480;52.040;113.502;2023-04-03T19:12:20;-7.19;40.22
75838;SHT30;64480;52.040;113.502;2023-04-03T19:15:24;-7.23;40.58
75838;SHT30;64480;52.040;113.502;2023-04-03T19:18:52;-7.22;40.78
75838;SHT30;64480;52.040;113.502;2023-04-03T19:21:56;-7.26;40.27
75838;SHT30;64480;52.040;113.502;2023-04-03T19:25:04;-7.29;40.58
75838;SHT30;64480;52.040;113.502;2023-04-03T19:28:33;-7.33;41.09
75838;SHT30;64480;52.040;113.502;2023-04-03T19:31:37;-7.34;40.77
75838;SHT30;64480;52.040;113.502;2023-04-03T19:34:46;-7.34;40.70
75838;SHT30;64480;52.040;113.502;2023-04-03T19:38:14;-7.37;40.73
75838;SHT30;64480;52.040;113.502;2023-04-03T19:41:20;-7.39;40.87
75838;SHT30;64480;52.040;113.502;2023-04-03T19:44:25;-7.40;41.47
75838;SHT30;64480;52.040;113.502;2023-04-03T19:47:33;-7.40;40.94
75838;SHT30;64480;52.040;113.502;2023-04-03T19:51:02;-7.44;40.86
75838;SHT30;64480;52.040;113.502;2023-04-03T19:54:16;-7.44;40.81
75838;SHT30;64480;52.040;113.502;2023-04-03T19:57:24;-7.46;40.78
75838;SHT30;64480;52.040;113.502;2023-04-03T20:00:32;-7.47;41.16
75838;SHT30;64480;52.040;113.502;2023-04-03T20:03:38;-7.52;40.72
75838;SHT30;64480;52.040;113.502;2023-04-03T20:06:48;-7.54;40.88
75838;SHT30;64480;52.040;113.502;2023-04-03T20:09:56;-7.58;40.99
75838;SHT30;64480;52.040;113.502;2023-04-03T20:13:00;-7.65;42.30
75838;SHT30;64480;52.040;113.502;2023-04-03T20:20:00;-7.79;42.06
75838;SHT30;64480;52.040;113.502;2023-04-03T20:23:08;-7.84;42.83
75838;SHT30;64480;52.040;113.502;2023-04-03T20:26:21;-7.92;43.16
75838;SHT30;64480;52.040;113.502;2023-04-03T20:29:33;-7.92;43.37